createdAt,value
2022-08-16T00:02:31.555Z,100.00
2022-08-16T00:04:59.680Z,100.00
2022-08-16T00:07:29.196Z,100.00
2022-08-16T00:09:57.493Z,100.00
2022-08-16T00:12:25.364Z,100.00
2022-08-16T00:14:56.587Z,100.00
2022-08-16T00:17:24.259Z,100.00
2022-08-16T00:19:53.623Z,100.00
2022-08-16T00:22:21.223Z,100.00
2022-08-16T00:24:54.765Z,100.00
2022-08-16T00:27:23.127Z,100.00
2022-08-16T00:30:00.769Z,100.00
2022-08-16T00:32:43.225Z,100.00
2022-08-16T00:35:15.640Z,100.00
2022-08-16T00:37:58.970Z,100.00
2022-08-16T00:40:50.947Z,100.00
2022-08-16T00:43:42.441Z,100.00
2022-08-16T00:46:22.286Z,100.00
2022-08-16T00:49:02.535Z,100.00
2022-08-16T00:51:29.773Z,100.00
2022-08-16T00:53:57.002Z,100.00
2022-08-16T00:56:58.119Z,100.00
2022-08-16T00:59:17.538Z,100.00
2022-08-16T01:01:45.340Z,100.00
2022-08-16T01:04:25.799Z,100.00
2022-08-16T01:07:02.255Z,100.00
2022-08-16T01:09:33.772Z,100.00
2022-08-16T01:12:02.094Z,100.00
2022-08-16T01:14:33.448Z,100.00
2022-08-16T01:17:01.044Z,100.00
2022-08-16T01:19:31.497Z,100.00
2022-08-16T01:22:46.996Z,100.00
2022-08-16T01:24:55.653Z,100.00
2022-08-16T01:27:35.747Z,100.00
2022-08-16T01:30:20.434Z,100.00
2022-08-16T01:33:02.904Z,100.00
2022-08-16T01:35:41.937Z,100.00
2022-08-16T01:38:36.113Z,100.00
2022-08-16T01:41:07.178Z,100.00
2022-08-16T01:43:35.079Z,100.00
2022-08-16T01:46:37.052Z,100.00
2022-08-16T01:48:56.402Z,100.00
2022-08-16T01:51:25.238Z,100.00
2022-08-16T01:53:55.389Z,100.00
2022-08-16T01:56:24.714Z,100.00
2022-08-16T01:58:54.994Z,100.00
2022-08-16T02:01:22.317Z,100.00
2022-08-16T02:03:50.509Z,100.00
2022-08-16T02:06:26.044Z,100.00
2022-08-16T02:09:00.863Z,100.00
2022-08-16T02:11:48.279Z,100.00
2022-08-16T02:14:18.393Z,100.00
2022-08-16T02:16:48.942Z,100.00
2022-08-16T02:19:18.348Z,100.00
2022-08-16T02:22:09.322Z,100.00
2022-08-16T02:24:40.942Z,100.00
2022-08-16T02:27:09.360Z,100.00
2022-08-16T02:29:36.171Z,100.00
2022-08-16T02:32:50.277Z,100.00
2022-08-16T02:34:51.335Z,100.00
2022-08-16T02:37:23.209Z,100.00
2022-08-16T02:39:53.941Z,100.00
2022-08-16T02:42:21.328Z,100.00
2022-08-16T02:44:48.957Z,100.00
2022-08-16T02:47:25.088Z,100.00
2022-08-16T02:50:30.594Z,100.00
2022-08-16T02:52:39.103Z,100.00
2022-08-16T02:55:40.854Z,100.00
2022-08-16T02:58:08.692Z,100.00
2022-08-16T03:00:36.163Z,100.00
2022-08-16T03:03:04.751Z,100.00
2022-08-16T03:05:37.381Z,100.00
2022-08-16T03:08:05.329Z,100.00
2022-08-16T03:10:52.874Z,100.00
2022-08-16T03:13:20.673Z,100.00
2022-08-16T03:15:49.738Z,100.00
2022-08-16T03:18:34.200Z,100.00
2022-08-16T03:21:01.629Z,100.00
2022-08-16T03:23:28.305Z,100.00
2022-08-16T03:26:02.689Z,100.00
2022-08-16T03:28:29.429Z,100.00
2022-08-16T03:30:56.998Z,100.00
2022-08-16T03:33:23.961Z,100.00
2022-08-16T03:35:57.373Z,100.00
2022-08-16T03:38:32.498Z,100.00
2022-08-16T03:41:03.736Z,100.00
2022-08-16T03:43:51.053Z,100.00
2022-08-16T03:46:48.488Z,100.00
2022-08-16T03:49:12.138Z,100.00
2022-08-16T03:51:41.709Z,100.00
2022-08-16T03:54:12.669Z,100.00
2022-08-16T03:56:39.789Z,100.00
2022-08-16T03:59:24.069Z,100.00
2022-08-16T04:01:53.858Z,100.00
2022-08-16T04:04:30.974Z,100.00
2022-08-16T04:07:02.826Z,100.00
2022-08-16T04:09:35.442Z,100.00
2022-08-16T04:12:11.169Z,100.00
2022-08-16T04:14:51.927Z,100.00
2022-08-16T04:17:18.569Z,100.00
2022-08-16T04:19:46.827Z,100.00
2022-08-16T04:22:14.135Z,100.00
2022-08-16T04:24:54.065Z,100.00
2022-08-16T04:27:21.482Z,100.00
2022-08-16T04:29:52.137Z,100.00
2022-08-16T04:32:19.792Z,100.00
2022-08-16T04:34:47.377Z,100.00
2022-08-16T04:37:14.520Z,100.00
2022-08-16T04:39:46.680Z,100.00
2022-08-16T04:42:25.988Z,100.00
2022-08-16T04:44:56.073Z,100.00
2022-08-16T04:47:31.355Z,100.00
2022-08-16T04:50:00.126Z,100.00
2022-08-16T04:52:34.562Z,100.00
2022-08-16T04:55:11.952Z,100.00
2022-08-16T04:57:39.567Z,100.00
2022-08-16T05:00:32.677Z,100.00
2022-08-16T05:03:08.942Z,100.00
2022-08-16T05:05:44.881Z,100.00
2022-08-16T05:08:29.700Z,100.00
2022-08-16T05:11:00.596Z,100.00
2022-08-16T05:13:41.665Z,100.00
2022-08-16T05:16:21.742Z,100.00
2022-08-16T05:18:51.380Z,100.00
2022-08-16T05:21:20.871Z,100.00
2022-08-16T05:23:55.458Z,100.00
2022-08-16T05:26:27.793Z,100.00
2022-08-16T05:28:59.469Z,100.00
2022-08-16T05:31:29.781Z,100.00
2022-08-16T05:33:59.165Z,100.00
2022-08-16T05:36:33.982Z,100.00
2022-08-16T05:39:05.594Z,100.00
2022-08-16T05:41:32.721Z,100.00
2022-08-16T05:44:05.613Z,100.00
2022-08-16T05:46:49.929Z,100.00
2022-08-16T05:49:22.611Z,100.00
2022-08-16T05:51:50.381Z,100.00
2022-08-16T05:54:25.006Z,100.00
2022-08-16T05:56:53.159Z,100.00
2022-08-16T05:59:21.996Z,100.00
2022-08-16T06:01:50.813Z,100.00
2022-08-16T06:04:35.494Z,100.00
2022-08-16T06:07:08.936Z,100.00
2022-08-16T06:09:51.292Z,100.00
2022-08-16T06:12:26.803Z,100.00
2022-08-16T06:14:59.351Z,100.00
2022-08-16T06:17:41.139Z,100.00
2022-08-16T06:20:18.378Z,100.00
2022-08-16T06:22:58.872Z,100.00
2022-08-16T06:25:36.787Z,100.00
2022-08-16T06:28:10.010Z,100.00
2022-08-16T06:30:44.106Z,100.00
2022-08-16T06:33:19.637Z,100.00
2022-08-16T06:35:49.709Z,100.00
2022-08-16T06:38:32.228Z,100.00
2022-08-16T06:41:05.442Z,100.00
2022-08-16T06:43:33.343Z,100.00
2022-08-16T06:46:03.812Z,100.00
2022-08-16T06:48:32.791Z,100.00
2022-08-16T06:51:04.523Z,100.00
2022-08-16T06:53:35.441Z,100.00
2022-08-16T06:56:14.692Z,100.00
2022-08-16T06:58:50.833Z,100.00
2022-08-16T07:01:21.430Z,100.00
2022-08-16T07:03:54.500Z,100.00
2022-08-16T07:06:26.686Z,100.00
2022-08-16T07:08:54.601Z,100.00
2022-08-16T07:11:48.222Z,100.00
2022-08-16T07:14:26.224Z,100.00
2022-08-16T07:16:58.976Z,100.00
2022-08-16T07:19:33.684Z,100.00
2022-08-16T07:22:47.682Z,100.00
2022-08-16T07:25:07.821Z,100.00
2022-08-16T07:27:37.314Z,100.00
2022-08-16T07:30:39.785Z,100.00
2022-08-16T07:32:55.688Z,100.00
2022-08-16T07:35:22.570Z,100.00
2022-08-16T07:37:49.874Z,100.00
2022-08-16T07:40:17.529Z,100.00
2022-08-16T07:42:44.379Z,100.00
2022-08-16T07:45:12.421Z,100.00
2022-08-16T07:47:39.323Z,100.00
2022-08-16T07:50:56.186Z,100.00
2022-08-16T07:52:57.342Z,100.00
2022-08-16T07:55:27.187Z,100.00
2022-08-16T07:58:01.153Z,100.00
2022-08-16T08:00:31.162Z,100.00
2022-08-16T08:03:00.543Z,100.00
2022-08-16T08:05:35.422Z,100.00
2022-08-16T08:08:11.430Z,100.00
2022-08-16T08:10:47.242Z,100.00
2022-08-16T08:13:15.710Z,100.00
2022-08-16T08:15:52.563Z,100.00
2022-08-16T08:18:29.304Z,100.00
2022-08-16T08:20:58.871Z,100.00
2022-08-16T08:23:27.744Z,100.00
2022-08-16T08:25:55.875Z,100.00
2022-08-16T08:28:23.013Z,100.00
2022-08-16T08:31:01.198Z,100.00
2022-08-16T08:33:29.365Z,100.00
2022-08-16T08:36:00.919Z,100.00
2022-08-16T08:38:44.260Z,100.00
2022-08-16T08:41:18.399Z,100.00
2022-08-16T08:43:46.798Z,100.00
2022-08-16T08:46:21.353Z,100.00
2022-08-16T08:48:59.924Z,100.00
2022-08-16T08:51:35.814Z,100.00
2022-08-16T08:54:09.073Z,100.00
2022-08-16T08:56:37.646Z,100.00
2022-08-16T08:59:13.161Z,100.00
2022-08-16T09:01:56.557Z,100.00
2022-08-16T09:04:26.935Z,100.00
2022-08-16T09:06:54.995Z,100.00
2022-08-16T09:09:23.104Z,100.00
2022-08-16T09:12:03.949Z,100.00
2022-08-16T09:14:33.083Z,100.00
2022-08-16T09:17:02.858Z,100.00
2022-08-16T09:19:32.297Z,100.00
2022-08-16T09:22:00.832Z,100.00
2022-08-16T09:24:32.215Z,100.00
2022-08-16T09:27:14.962Z,100.00
2022-08-16T09:29:44.691Z,100.00
2022-08-16T09:32:12.686Z,100.00
2022-08-16T09:34:58.467Z,100.00
2022-08-16T09:37:29.685Z,100.00
2022-08-16T09:40:00.730Z,100.00
2022-08-16T09:42:30.780Z,100.00
2022-08-16T09:45:18.421Z,100.00
2022-08-16T09:47:57.064Z,100.00
2022-08-16T09:50:36.802Z,100.00
2022-08-16T09:53:15.509Z,100.00
2022-08-16T09:55:50.190Z,100.00
2022-08-16T09:58:41.565Z,100.00
2022-08-16T10:01:11.198Z,100.00
2022-08-16T10:03:38.800Z,100.00
2022-08-16T10:06:26.286Z,100.00
2022-08-16T10:09:05.440Z,100.00
2022-08-16T10:11:55.160Z,100.00
2022-08-16T10:14:24.604Z,100.00
2022-08-16T10:17:02.499Z,100.00
2022-08-16T10:19:29.781Z,100.00
2022-08-16T10:22:04.806Z,100.00
2022-08-16T10:24:33.175Z,100.00
2022-08-16T10:27:25.689Z,100.00
2022-08-16T10:30:01.107Z,100.00
2022-08-16T10:32:34.561Z,100.00
2022-08-16T10:35:03.522Z,100.00
2022-08-16T10:37:35.789Z,100.00
2022-08-16T10:40:29.073Z,100.00
2022-08-16T10:42:56.161Z,100.00
2022-08-16T10:45:23.061Z,100.00
2022-08-16T10:47:58.858Z,100.00
2022-08-16T10:50:31.191Z,100.00
2022-08-16T10:52:59.295Z,100.00
2022-08-16T10:55:44.733Z,100.00
2022-08-16T10:58:17.038Z,100.00
2022-08-16T11:00:46.053Z,100.00
2022-08-16T11:06:03.409Z,100.00
2022-08-16T11:08:37.520Z,100.00
2022-08-16T11:11:15.530Z,100.00
2022-08-16T11:14:11.060Z,100.00
2022-08-16T11:19:22.923Z,100.00
2022-08-16T11:24:44.540Z,100.00
2022-08-16T11:27:20.216Z,100.00
2022-08-16T11:29:55.170Z,100.00
2022-08-16T11:32:31.293Z,100.00
2022-08-16T11:35:10.840Z,100.00
2022-08-16T11:40:44.418Z,100.00
2022-08-16T11:43:16.998Z,100.00
2022-08-16T11:45:53.895Z,100.00
2022-08-16T11:48:22.881Z,100.00
2022-08-16T11:50:49.820Z,100.00
2022-08-16T11:53:17.341Z,100.00
2022-08-16T11:55:44.759Z,100.00
2022-08-16T11:58:11.963Z,100.00
2022-08-16T12:00:51.087Z,100.00
2022-08-16T12:03:21.083Z,100.00
2022-08-16T12:05:59.222Z,100.00
2022-08-16T12:08:27.364Z,100.00
2022-08-16T12:10:59.250Z,99.77
2022-08-16T12:13:27.007Z,100.00
2022-08-16T12:15:54.440Z,96.93
2022-08-16T12:18:21.548Z,100.00
2022-08-16T12:20:48.711Z,100.00
2022-08-16T12:23:15.836Z,100.00
2022-08-16T12:25:44.559Z,100.00
2022-08-16T12:28:12.594Z,100.00
2022-08-16T12:30:42.305Z,100.00
2022-08-16T12:33:11.766Z,100.00
2022-08-16T12:35:40.024Z,100.00
2022-08-16T12:38:37.943Z,97.41
2022-08-16T12:40:55.775Z,97.26
2022-08-16T12:43:25.051Z,100.00
2022-08-16T12:45:54.219Z,98.25
2022-08-16T12:48:44.576Z,97.79
2022-08-16T12:51:22.316Z,96.96
2022-08-16T12:53:52.773Z,97.70
2022-08-16T12:56:25.300Z,97.85
2022-08-16T12:58:53.472Z,94.37
2022-08-16T13:01:27.071Z,94.27
2022-08-16T13:04:12.444Z,97.19
2022-08-16T13:06:45.709Z,95.24
2022-08-16T13:09:20.838Z,95.27
2022-08-16T13:12:19.100Z,88.20
2022-08-16T13:14:47.361Z,96.42
2022-08-16T13:17:26.265Z,96.04
2022-08-16T13:20:11.279Z,93.49
2022-08-16T13:22:58.151Z,97.47
2022-08-16T13:25:26.902Z,91.43
2022-08-16T13:28:01.980Z,90.60
2022-08-16T13:30:48.359Z,86.99
2022-08-16T13:33:26.019Z,84.46
2022-08-16T13:35:58.488Z,89.59
2022-08-16T13:38:25.907Z,89.65
2022-08-16T13:40:55.887Z,87.49
2022-08-16T13:43:26.386Z,89.88
2022-08-16T13:45:55.411Z,87.54
2022-08-16T13:48:24.937Z,90.42
2022-08-16T13:50:53.889Z,84.99
2022-08-16T13:53:24.527Z,88.17
2022-08-16T13:55:57.884Z,89.17
2022-08-16T13:58:37.091Z,91.76
2022-08-16T14:01:17.990Z,91.26
2022-08-16T14:03:45.339Z,91.42
2022-08-16T14:06:14.206Z,89.93
2022-08-16T14:08:43.025Z,89.41
2022-08-16T14:11:15.051Z,89.76
2022-08-16T14:13:43.900Z,86.42
2022-08-16T14:16:23.470Z,89.06
2022-08-16T14:18:52.841Z,92.45
2022-08-16T14:21:23.595Z,91.69
2022-08-16T14:23:52.414Z,88.12
2022-08-16T14:26:21.363Z,87.42
2022-08-16T14:28:50.746Z,81.23
2022-08-16T14:31:18.530Z,84.79
2022-08-16T14:33:46.268Z,87.40
2022-08-16T14:36:18.878Z,85.36
2022-08-16T14:38:52.163Z,89.89
2022-08-16T14:41:18.989Z,90.24
2022-08-16T14:43:45.741Z,88.84
2022-08-16T14:46:12.660Z,89.70
2022-08-16T14:48:42.320Z,85.33
2022-08-16T14:51:09.141Z,88.39
2022-08-16T14:53:36.329Z,88.21
2022-08-16T14:56:05.220Z,87.95
2022-08-16T14:58:36.747Z,86.13
2022-08-16T15:01:10.012Z,90.53
2022-08-16T15:03:37.746Z,82.07
2022-08-16T15:06:05.307Z,87.21
2022-08-16T15:08:36.665Z,91.74
2022-08-16T15:11:03.801Z,88.21
2022-08-16T15:13:30.570Z,89.98
2022-08-16T15:16:02.308Z,95.27
2022-08-16T15:18:31.791Z,92.46
2022-08-16T15:21:00.778Z,100.00
2022-08-16T15:23:28.599Z,100.00
2022-08-16T15:26:02.932Z,98.84
2022-08-16T15:28:32.856Z,99.83
2022-08-16T15:31:05.951Z,100.00
2022-08-16T15:33:48.618Z,100.00
2022-08-16T15:36:19.285Z,100.00
2022-08-16T15:39:02.156Z,100.00
2022-08-16T15:41:42.590Z,100.00
2022-08-16T15:44:14.759Z,100.00
2022-08-16T15:46:56.851Z,100.00
2022-08-16T15:49:37.003Z,100.00
2022-08-16T15:52:29.696Z,100.00
2022-08-16T15:54:58.374Z,100.00
2022-08-16T15:57:27.070Z,100.00
2022-08-16T15:59:56.067Z,100.00
2022-08-16T16:02:31.851Z,100.00
2022-08-16T16:05:04.796Z,100.00
2022-08-16T16:07:33.462Z,100.00
2022-08-16T16:10:01.789Z,100.00
2022-08-16T16:12:53.794Z,100.00
2022-08-16T16:15:18.515Z,100.00
2022-08-16T16:17:50.900Z,100.00
2022-08-16T16:20:27.381Z,100.00
2022-08-16T16:23:02.880Z,100.00
2022-08-16T16:25:31.306Z,100.00
2022-08-16T16:28:00.182Z,100.00
2022-08-16T16:30:34.515Z,100.00
2022-08-16T16:33:11.691Z,100.00
2022-08-16T16:35:46.846Z,100.00
2022-08-16T16:38:15.679Z,100.00
2022-08-16T16:40:46.502Z,100.00
2022-08-16T16:43:20.936Z,100.00
2022-08-16T16:45:52.910Z,100.00
2022-08-16T16:48:19.720Z,100.00
2022-08-16T16:50:46.618Z,100.00
2022-08-16T16:53:17.218Z,100.00
2022-08-16T16:55:51.568Z,100.00
2022-08-16T16:58:38.973Z,100.00
2022-08-16T17:01:10.067Z,100.00
2022-08-16T17:03:38.559Z,100.00
2022-08-16T17:06:09.206Z,100.00
2022-08-16T17:08:40.736Z,100.00
2022-08-16T17:11:09.780Z,100.00
2022-08-16T17:13:37.230Z,100.00
2022-08-16T17:16:05.292Z,100.00
2022-08-16T17:19:15.669Z,100.00
2022-08-16T17:21:20.620Z,100.00
2022-08-16T17:23:58.837Z,100.00
2022-08-16T17:26:35.128Z,100.00
2022-08-16T17:29:11.139Z,100.00
2022-08-16T17:31:51.267Z,100.00
2022-08-16T17:34:28.905Z,100.00
2022-08-16T17:36:59.446Z,100.00
2022-08-16T17:39:29.574Z,100.00
2022-08-16T17:41:58.868Z,100.00
2022-08-16T17:44:25.983Z,100.00
2022-08-16T17:46:53.109Z,100.00
2022-08-16T17:49:21.122Z,100.00
2022-08-16T17:51:48.659Z,100.00
2022-08-16T17:54:18.320Z,100.00
2022-08-16T17:57:01.330Z,100.00
2022-08-16T17:59:29.243Z,100.00
2022-08-16T18:01:56.900Z,100.00
2022-08-16T18:04:49.884Z,100.00
2022-08-16T18:07:11.709Z,100.00
2022-08-16T18:09:40.942Z,100.00
2022-08-16T18:12:44.546Z,100.00
2022-08-16T18:15:07.558Z,100.00
2022-08-16T18:17:34.636Z,100.00
2022-08-16T18:20:01.429Z,100.00
2022-08-16T18:22:30.882Z,100.00
2022-08-16T18:24:58.569Z,100.00
2022-08-16T18:27:27.251Z,100.00
2022-08-16T18:29:54.828Z,100.00
2022-08-16T18:32:22.068Z,100.00
2022-08-16T18:34:51.980Z,100.00
2022-08-16T18:37:18.733Z,100.00
2022-08-16T18:39:45.606Z,100.00
2022-08-16T18:42:14.489Z,100.00
2022-08-16T18:44:43.612Z,100.00
2022-08-16T18:47:10.548Z,100.00
2022-08-16T18:49:37.371Z,100.00
2022-08-16T18:52:04.950Z,100.00
2022-08-16T18:54:33.203Z,100.00
2022-08-16T18:57:02.407Z,100.00
2022-08-16T18:59:33.298Z,100.00
2022-08-16T19:02:04.954Z,100.00
2022-08-16T19:04:55.039Z,100.00
2022-08-16T19:07:30.873Z,100.00
2022-08-16T19:10:02.250Z,100.00
2022-08-16T19:12:37.758Z,100.00
2022-08-16T19:15:21.720Z,100.00
2022-08-16T19:17:49.102Z,100.00
2022-08-16T19:20:18.682Z,100.00
2022-08-16T19:23:05.011Z,100.00
2022-08-16T19:25:49.044Z,100.00
2022-08-16T19:28:51.021Z,100.00
2022-08-16T19:31:19.319Z,100.00
2022-08-16T19:33:54.519Z,100.00
2022-08-16T19:36:43.421Z,100.00
2022-08-16T19:39:14.228Z,100.00
2022-08-16T19:41:52.091Z,100.00
2022-08-16T19:44:22.692Z,100.00
2022-08-16T19:46:50.091Z,100.00
2022-08-16T19:49:17.529Z,100.00
2022-08-16T19:51:46.323Z,100.00
2022-08-16T19:54:14.184Z,100.00
2022-08-16T19:56:41.610Z,100.00
2022-08-16T19:59:39.435Z,100.00
2022-08-16T20:01:55.640Z,100.00
2022-08-16T20:04:23.519Z,100.00
2022-08-16T20:06:52.608Z,100.00
2022-08-16T20:09:21.062Z,100.00
2022-08-16T20:11:49.847Z,100.00
2022-08-16T20:14:24.028Z,100.00
2022-08-16T20:16:57.058Z,100.00
2022-08-16T20:19:25.200Z,100.00
2022-08-16T20:21:52.154Z,100.00
2022-08-16T20:24:36.015Z,100.00
2022-08-16T20:27:06.172Z,100.00
2022-08-16T20:29:33.877Z,100.00
2022-08-16T20:32:00.859Z,100.00
2022-08-16T20:34:28.398Z,100.00
2022-08-16T20:36:55.436Z,100.00
2022-08-16T20:39:24.207Z,100.00
2022-08-16T20:41:51.853Z,100.00
2022-08-16T20:44:22.803Z,100.00
2022-08-16T20:46:51.838Z,100.00
2022-08-16T20:49:18.698Z,100.00
2022-08-16T20:51:49.687Z,100.00
2022-08-16T20:54:16.782Z,100.00
2022-08-16T20:56:43.663Z,100.00
2022-08-16T20:59:10.470Z,100.00
2022-08-16T21:01:46.355Z,100.00
2022-08-16T21:04:17.651Z,100.00
2022-08-16T21:06:52.977Z,100.00
2022-08-16T21:09:29.146Z,100.00
2022-08-16T21:11:57.315Z,100.00
2022-08-16T21:14:24.325Z,100.00
2022-08-16T21:16:51.498Z,100.00
2022-08-16T21:19:18.606Z,100.00
2022-08-16T21:21:45.560Z,100.00
2022-08-16T21:24:12.699Z,100.00
2022-08-16T21:26:39.611Z,100.00
2022-08-16T21:29:11.134Z,100.00
2022-08-16T21:31:41.216Z,100.00
2022-08-16T21:34:08.903Z,100.00
2022-08-16T21:36:36.689Z,100.00
2022-08-16T21:39:06.463Z,100.00
2022-08-16T21:41:34.762Z,100.00
2022-08-16T21:44:01.528Z,100.00
2022-08-16T21:46:28.377Z,100.00
2022-08-16T21:48:55.180Z,100.00
2022-08-16T21:51:22.630Z,100.00
2022-08-16T21:53:49.613Z,100.00
2022-08-16T21:56:17.467Z,100.00
2022-08-16T21:58:45.701Z,100.00
2022-08-16T22:01:12.686Z,100.00
2022-08-16T22:03:39.526Z,100.00
2022-08-16T22:06:14.085Z,100.00
2022-08-16T22:08:50.611Z,100.00
2022-08-16T22:11:22.210Z,100.00
2022-08-16T22:13:51.134Z,100.00
2022-08-16T22:16:27.002Z,100.00
2022-08-16T22:18:54.012Z,100.00
2022-08-16T22:21:21.360Z,100.00
2022-08-16T22:23:57.846Z,100.00
2022-08-16T22:26:31.322Z,100.00
2022-08-16T22:29:03.446Z,100.00
2022-08-16T22:31:30.912Z,100.00
2022-08-16T22:33:57.994Z,100.00
2022-08-16T22:36:28.620Z,100.00
2022-08-16T22:38:59.554Z,100.00
2022-08-16T22:41:28.230Z,100.00
2022-08-16T22:43:55.685Z,100.00
2022-08-16T22:46:22.663Z,100.00
2022-08-16T22:48:50.676Z,100.00
2022-08-16T22:51:19.749Z,100.00
2022-08-16T22:53:46.561Z,100.00
2022-08-16T22:56:13.305Z,100.00
2022-08-16T22:58:39.958Z,100.00
2022-08-16T23:01:08.659Z,100.00
2022-08-16T23:03:36.479Z,100.00
2022-08-16T23:06:04.090Z,100.00
2022-08-16T23:08:38.932Z,100.00
2022-08-16T23:11:12.817Z,100.00
2022-08-16T23:13:52.728Z,100.00
2022-08-16T23:16:25.130Z,100.00
2022-08-16T23:19:02.253Z,100.00
2022-08-16T23:21:29.564Z,100.00
2022-08-16T23:23:56.190Z,100.00
2022-08-16T23:26:44.026Z,100.00
2022-08-16T23:29:15.623Z,100.00
2022-08-16T23:31:49.392Z,100.00
2022-08-16T23:34:16.097Z,100.00
2022-08-16T23:36:42.781Z,100.00
2022-08-16T23:39:09.462Z,100.00
2022-08-16T23:41:36.397Z,100.00
2022-08-16T23:44:56.859Z,100.00
2022-08-16T23:46:49.873Z,100.00
2022-08-16T23:49:56.345Z,100.00
2022-08-16T23:52:09.910Z,100.00
2022-08-16T23:54:36.704Z,100.00
2022-08-16T23:57:03.711Z,100.00
2022-08-16T23:59:31.718Z,100.00
